Beihan Airport


Codes: OYBN/BHN
Name: Beihan Airport
City:
Country: Yemen
Elevation: 3800 ft.

Photos at Beihan Airport


   Photos courtesy of SpottingLog. You can add your own sightings and photos by signing up for a free trial today.



No photos found.

Weather at Beihan Airport


Time (UTC)DescriptionTempratureWindCloud coverageVisibilityPressureHumidity
15-Apr-2024 18:00Scattered Clouds32°C22 mph, SW36%10000m1007hPa35%
15-Apr-2024 21:00Few Clouds30°C16 mph, SW15%10000m1008hPa43%
16-Apr-2024 00:00Scattered Clouds27°C13 mph, SW45%10000m1008hPa50%
16-Apr-2024 03:00Scattered Clouds26°C16 mph, SW32%10000m1009hPa50%
16-Apr-2024 06:00Broken Clouds31°C16 mph, SW54%10000m1010hPa32%
16-Apr-2024 09:00Overcast Clouds35°C18 mph, SW100%10000m1008hPa23%
16-Apr-2024 12:00Overcast Clouds35°C13 mph, SW100%10000m1004hPa22%
16-Apr-2024 15:00Overcast Clouds33°C18 mph, SW100%10000m1006hPa31%
16-Apr-2024 18:00Overcast Clouds30°C18 mph, SW98%10000m1009hPa45%
16-Apr-2024 21:00Broken Clouds29°C11 mph, SW78%10000m1009hPa50%
17-Apr-2024 00:00Light Rain27°C4 mph, NW50%10000m1009hPa53%
17-Apr-2024 03:00Light Rain23°C7 mph, NE25%10000m1013hPa74%
17-Apr-2024 06:00Few Clouds27°C7 mph, NE23%10000m1014hPa47%
17-Apr-2024 09:00Few Clouds31°C7 mph, NE14%10000m1011hPa32%
17-Apr-2024 12:00Broken Clouds32°C7 mph, SE56%10000m1007hPa29%
17-Apr-2024 15:00Overcast Clouds30°C2 mph, S100%10000m1009hPa39%
17-Apr-2024 18:00Overcast Clouds30°C4 mph, E97%10000m1011hPa39%
17-Apr-2024 21:00Broken Clouds29°C4 mph, SE78%10000m1011hPa47%
18-Apr-2024 00:00Light Rain27°C2 mph, N86%10000m1010hPa52%
18-Apr-2024 03:00Light Rain27°C4 mph, N90%10000m1012hPa52%
18-Apr-2024 06:00Broken Clouds29°C7 mph, N60%10000m1013hPa37%
18-Apr-2024 09:00Broken Clouds31°C7 mph, NE79%10000m1011hPa32%
18-Apr-2024 12:00Broken Clouds33°C4 mph, NE72%10000m1007hPa27%
18-Apr-2024 15:00Overcast Clouds32°C4 mph, E99%10000m1008hPa30%
18-Apr-2024 18:00Overcast Clouds30°C4 mph, S99%10000m1010hPa40%
18-Apr-2024 21:00Broken Clouds29°C7 mph, S73%10000m1010hPa44%
19-Apr-2024 00:00Overcast Clouds27°C4 mph, S86%10000m1008hPa47%
19-Apr-2024 03:00Light Rain26°C4 mph, SW47%10000m1010hPa51%
19-Apr-2024 06:00Scattered Clouds29°C2 mph, N34%10000m1011hPa40%
19-Apr-2024 09:00Broken Clouds32°C4 mph, NE53%10000m1008hPa33%
19-Apr-2024 12:00Light Rain30°C4 mph, SE76%10000m1006hPa37%
19-Apr-2024 15:00Light Rain30°C11 mph, S34%10000m1006hPa40%
19-Apr-2024 18:00Light Rain25°C7 mph, NW65%10000m1010hPa62%
19-Apr-2024 21:00Light Rain25°C4 mph, S100%10000m1009hPa65%
20-Apr-2024 00:00Light Rain25°C2 mph, E91%10000m1008hPa59%
20-Apr-2024 03:00Light Rain22°C2 mph, NE76%10000m1011hPa75%
20-Apr-2024 06:00Light Rain27°C2 mph, NE68%10000m1011hPa52%
20-Apr-2024 09:00Scattered Clouds31°C4 mph, NE38%10000m1008hPa35%
20-Apr-2024 12:00Broken Clouds33°C9 mph, NE60%10000m1005hPa33%
20-Apr-2024 15:00Moderate Rain26°C4 mph, SW47%5761m1006hPa58%